Time;durP1;ratioP1;P1;durP2;ratioP2;P2;SDS_P1;SDS_P2;PMS_P1;PMS_P2;Temp;Humidity;BMP_temperature;BMP_pressure;BME280_temperature;BME280_humidity;BME280_pressure;Samples;Min_cycle;Max_cycle;Signal;HPM_P1;HPM_P2
2022/11/01 00:05:00;;;;;;;10.77;4.93;;;;;;;15.53;100.00;100568.53;10498684;28;20280;-63
2022/11/01 00:10:03;;;;;;;8.35;4.90;;;;;;;15.62;100.00;100574.94;10496234;28;20049;-64
2022/11/01 00:15:07;;;;;;;14.85;5.05;;;;;;;15.77;100.00;100567.81;10498337;28;20068;-64
2022/11/01 00:20:11;;;;;;;6.80;4.60;;;;;;;15.89;100.00;100564.31;10498511;28;20079;-64
2022/11/01 00:25:13;;;;;;;8.68;4.93;;;;;;;16.13;100.00;100565.38;10497779;28;20113;-65
2022/11/01 00:30:16;;;;;;;;;;;;;;;16.13;100.00;100560.94;10497859;28;20070;-64
2022/11/01 00:35:18;;;;;;;12.45;4.80;;;;;;;16.05;100.00;100555.41;10498388;28;19966;-65
2022/11/01 00:40:19;;;;;;;;;;;;;;;16.02;100.00;100550.34;10495760;28;20094;-66
2022/11/01 00:45:22;;;;;;;8.43;3.67;;;;;;;15.96;100.00;100557.72;10497142;28;20338;-63
2022/11/01 00:50:24;;;;;;;7.88;4.25;;;;;;;15.92;100.00;100553.59;10497429;28;20312;-65
2022/11/01 00:55:26;;;;;;;10.60;4.53;;;;;;;15.99;100.00;100553.19;10496984;28;20109;-65
2022/11/01 01:00:29;;;;;;;8.57;4.60;;;;;;;15.93;100.00;100549.16;10496913;28;20125;-66
2022/11/01 01:05:32;;;;;;;5.97;3.63;;;;;;;16.06;100.00;100543.91;10496926;28;20060;-65
2022/11/01 01:10:35;;;;;;;10.98;5.22;;;;;;;16.05;100.00;100536.97;10494718;28;20116;-63
2022/11/01 01:15:39;;;;;;;11.68;4.72;;;;;;;16.04;100.00;100533.47;10537808;28;20078;-64
2022/11/01 01:20:41;;;;;;;9.80;5.05;;;;;;;16.16;100.00;100534.41;10537689;28;20124;-65
2022/11/01 01:25:42;;;;;;;;;;;;;;;16.10;100.00;100534.84;10537916;28;20059;-63
2022/11/01 01:30:45;;;;;;;9.52;4.05;;;;;;;16.11;100.00;100547.03;10537671;28;20004;-66
2022/11/01 01:35:47;;;;;;;12.23;5.30;;;;;;;16.12;100.00;100538.22;10537156;28;20060;-66
2022/11/01 01:40:48;;;;;;;;;;;;;;;16.17;100.00;100541.34;10534598;28;20106;-64
2022/11/01 01:45:51;;;;;;;10.20;4.90;;;;;;;16.05;100.00;100534.34;10537015;28;19920;-65
2022/11/01 01:50:59;;;;;;;6.82;4.82;;;;;;;16.17;100.00;100533.47;10536728;28;20294;-64
2022/11/01 01:56:05;;;;;;;7.65;4.50;;;;;;;16.18;100.00;100532.50;10536711;28;20048;-62
2022/11/01 02:01:08;;;;;;;9.52;4.78;;;;;;;16.26;100.00;100523.22;10536863;28;20534;-64
2022/11/01 02:06:14;;;;;;;10.52;4.93;;;;;;;16.30;100.00;100522.91;10536685;28;20078;-65
2022/11/01 02:11:19;;;;;;;13.32;4.90;;;;;;;16.36;100.00;100532.16;10534236;28;20048;-66
2022/11/01 02:16:46;;;;;;;8.70;4.50;;;;;;;16.31;100.00;100521.09;10536727;28;20101;-64
2022/11/01 02:22:00;;;;;;;10.23;4.43;;;;;;;16.25;100.00;100538.16;10536071;28;20052;-62
2022/11/01 02:27:23;;;;;;;10.23;4.25;;;;;;;16.22;100.00;100541.03;10535901;28;20082;-66
2022/11/01 02:32:38;;;;;;;7.75;4.18;;;;;;;16.32;100.00;100528.06;10535868;28;20449;-67
2022/11/01 02:37:51;;;;;;;8.23;4.13;;;;;;;16.26;100.00;100539.00;10537034;28;20059;-64
2022/11/01 02:43:00;;;;;;;6.20;3.95;;;;;;;16.17;100.00;100535.25;10534266;28;20048;-65
2022/11/01 02:48:05;;;;;;;8.05;4.65;;;;;;;16.05;100.00;100547.50;10536300;28;20101;-67
2022/11/01 02:53:08;;;;;;;8.52;3.60;;;;;;;16.22;100.00;100544.50;10538849;28;20577;-66
2022/11/01 02:58:19;;;;;;;7.85;4.40;;;;;;;16.01;100.00;100546.03;10543852;28;20051;-63
2022/11/01 03:03:28;;;;;;;9.52;4.30;;;;;;;15.99;100.00;100558.44;10543432;28;20082;-63
2022/11/01 03:08:37;;;;;;;11.55;4.45;;;;;;;16.06;100.00;100570.22;10540750;28;20125;-63
2022/11/01 03:13:56;;;;;;;10.93;3.95;;;;;;;16.07;100.00;100574.53;10542831;28;20184;-63
2022/11/01 03:19:12;;;;;;;8.18;4.22;;;;;;;16.04;100.00;100572.97;10542551;28;20062;-66
2022/11/01 03:24:26;;;;;;;5.82;4.15;;;;;;;15.95;100.00;100592.84;10542513;28;20090;-64
2022/11/01 03:29:31;;;;;;;9.00;4.05;;;;;;;15.86;100.00;100611.03;10542385;28;20078;-63
2022/11/01 03:34:38;;;;;;;5.20;3.35;;;;;;;15.77;100.00;100623.88;10542425;28;20048;-67
2022/11/01 03:39:45;;;;;;;4.45;2.30;;;;;;;15.88;92.86;100623.13;10539210;28;20545;-64
2022/11/01 03:44:53;;;;;;;4.60;2.30;;;;;;;15.64;90.03;100639.66;10541955;28;20101;-62
2022/11/01 03:50:14;;;;;;;4.60;1.80;;;;;;;15.57;86.19;100644.47;10541289;28;20043;-64
2022/11/01 03:55:18;;;;;;;3.70;1.30;;;;;;;15.32;86.26;100655.78;10541134;28;20056;-64
2022/11/01 04:00:23;;;;;;;3.38;1.67;;;;;;;15.17;86.38;100670.78;10540880;28;20052;-67
2022/11/01 04:05:30;;;;;;;2.47;1.17;;;;;;;15.01;82.62;100681.41;10540013;28;20101;-67
2022/11/01 04:10:34;;;;;;;3.10;1.30;;;;;;;14.81;82.46;100694.03;10537927;28;20098;-65
2022/11/01 04:20:57;;;;;;;1.15;0.95;;;;;;;14.71;79.76;100722.63;10539764;28;20731;-65
2022/11/01 04:25:59;;;;;;;2.22;1.00;;;;;;;14.51;80.50;100723.88;10539870;28;20056;-64
2022/11/01 04:31:00;;;;;;;;;;;;;;;14.21;81.92;100737.91;10540112;28;20052;-63
2022/11/01 04:36:06;;;;;;;4.55;1.10;;;;;;;14.25;80.52;100753.38;10540216;28;19958;-63
2022/11/01 04:41:08;;;;;;;4.13;1.08;;;;;;;14.09;80.92;100761.31;10537359;28;20138;-64
2022/11/01 04:46:10;;;;;;;8.77;1.42;;;;;;;13.94;82.14;100772.69;10539516;28;20070;-64
2022/11/01 04:51:13;;;;;;;3.22;1.05;;;;;;;13.79;82.29;100783.13;10539541;28;20108;-65
2022/11/01 04:56:15;;;;;;;2.05;0.98;;;;;;;13.75;82.94;100802.59;10538716;28;20427;-63
2022/11/01 05:01:16;;;;;;;4.15;1.08;;;;;;;13.59;83.84;100810.50;10538961;28;20051;-65
2022/11/01 05:06:19;;;;;;;4.90;1.30;;;;;;;13.51;84.55;100829.25;10538494;28;20500;-63
2022/11/01 05:11:24;;;;;;;3.25;1.10;;;;;;;13.55;84.61;100841.25;10535747;28;20070;-62
2022/11/01 05:16:25;;;;;;;3.30;1.23;;;;;;;13.32;86.36;100856.47;10538330;28;20067;-64
2022/11/01 05:21:28;;;;;;;1.95;1.00;;;;;;;13.22;87.55;100850.00;10538277;28;20044;-64
2022/11/01 05:26:30;;;;;;;4.18;1.20;;;;;;;13.22;86.44;100870.97;10538351;28;20052;-64
2022/11/01 05:31:32;;;;;;;11.88;1.58;;;;;;;13.22;85.91;100865.72;10537534;28;20048;-63
2022/11/01 05:36:35;;;;;;;1.10;0.98;;;;;;;13.14;87.20;100863.53;10537656;28;20104;-64
2022/11/01 05:41:36;;;;;;;3.25;1.48;;;;;;;13.08;87.53;100875.19;10534977;28;20048;-65
2022/11/01 05:46:38;;;;;;;3.45;1.25;;;;;;;13.05;87.38;100880.59;10537296;28;20101;-68
2022/11/01 05:51:42;;;;;;;2.58;1.27;;;;;;;13.06;85.09;100882.25;10537095;28;20098;-64
2022/11/01 05:56:44;;;;;;;3.20;1.40;;;;;;;12.92;84.60;100890.84;10537245;28;20089;-64
2022/11/01 06:01:46;;;;;;;4.30;1.30;;;;;;;12.99;81.95;100904.47;10536997;28;20048;-63
2022/11/01 06:06:49;;;;;;;4.68;1.40;;;;;;;12.76;82.38;100901.25;10536849;28;20075;-65
2022/11/01 06:11:51;;;;;;;6.05;1.60;;;;;;;12.54;84.69;100907.56;10534018;28;20097;-64
2022/11/01 06:16:52;;;;;;;;;;;;;;;12.50;85.30;100934.84;10536570;28;20423;-65
2022/11/01 06:21:58;;;;;;;3.27;1.20;;;;;;;12.69;83.97;100931.31;10536339;28;19966;-66
2022/11/01 06:26:59;;;;;;;6.35;1.55;;;;;;;12.49;85.05;100933.16;10536987;28;20122;-63
2022/11/01 06:32:04;;;;;;;5.95;1.58;;;;;;;12.42;86.18;100953.50;10544999;28;20101;-65
2022/11/01 06:37:07;;;;;;;2.13;1.00;;;;;;;12.42;86.58;100950.06;10544523;28;20056;-65
2022/11/01 06:42:10;;;;;;;6.13;1.52;;;;;;;12.39;87.62;100966.78;10540658;28;20052;-64
2022/11/01 06:47:12;;;;;;;6.13;1.10;;;;;;;12.33;88.18;100962.69;10543708;28;20052;-64
2022/11/01 06:52:15;;;;;;;5.55;1.50;;;;;;;12.19;89.35;100972.94;10544679;28;20052;-64
2022/11/01 06:57:17;;;;;;;9.10;1.45;;;;;;;12.20;89.18;100988.56;10543636;28;20124;-65
2022/11/01 07:02:18;;;;;;;7.47;1.48;;;;;;;12.15;89.35;101000.16;10543752;28;20055;-67
2022/11/01 07:07:22;;;;;;;7.07;1.30;;;;;;;12.13;89.31;101002.00;10543108;28;20048;-64
2022/11/01 07:12:23;;;;;;;6.15;1.85;;;;;;;12.11;89.29;101015.13;10541093;28;20055;-63
2022/11/01 07:17:26;;;;;;;8.27;2.05;;;;;;;12.10;88.05;101024.78;10542727;28;20476;-65
2022/11/01 07:22:29;;;;;;;9.75;2.35;;;;;;;12.05;88.09;101042.41;10543002;28;20101;-68
2022/11/01 07:27:30;;;;;;;8.13;1.80;;;;;;;12.08;87.68;101046.69;10541093;28;20044;-64
2022/11/01 07:32:32;;;;;;;8.05;1.88;;;;;;;12.09;86.77;101064.94;10540870;28;20599;-65
2022/11/01 07:37:35;;;;;;;8.15;2.03;;;;;;;12.17;85.52;101061.09;10541534;28;20048;-66
2022/11/01 07:42:41;;;;;;;8.82;1.88;;;;;;;12.11;86.94;101067.47;10538731;28;20051;-66
2022/11/01 07:47:43;;;;;;;4.07;1.45;;;;;;;12.16;86.07;101069.88;10538087;28;20056;-66
2022/11/01 07:52:46;;;;;;;9.80;2.10;;;;;;;12.17;85.86;101082.03;10507361;28;20106;-67
2022/11/01 07:57:48;;;;;;;4.72;1.50;;;;;;;12.21;85.94;101089.69;10532867;28;20114;-65
2022/11/01 08:02:50;;;;;;;8.85;2.00;;;;;;;12.78;83.63;101093.19;10539477;28;20048;-65
2022/11/01 08:07:53;;;;;;;5.55;1.58;;;;;;;12.80;82.38;101101.81;10524405;28;20098;-64
2022/11/01 08:13:01;;;;;;;9.82;2.90;;;;;;;13.05;81.34;101100.66;10496085;28;20094;-63
2022/11/01 08:18:03;;;;;;;7.60;1.52;;;;;;;13.29;80.46;101110.84;10498238;28;20510;-64
2022/11/01 08:23:06;;;;;;;8.27;1.88;;;;;;;13.35;79.14;101118.38;10497850;28;20102;-62
2022/11/01 08:28:13;;;;;;;14.27;2.78;;;;;;;13.46;77.55;101119.63;10497796;28;20059;-63
2022/11/01 08:33:14;;;;;;;10.85;2.22;;;;;;;13.39;77.68;101134.81;10497553;28;20097;-63
2022/11/01 08:38:18;;;;;;;;;;;;;;;13.69;77.12;101130.75;10497746;28;20063;-64
2022/11/01 08:43:21;;;;;;;10.32;2.35;;;;;;;13.73;77.59;101140.16;10494429;28;19924;-65
2022/11/01 08:48:22;;;;;;;7.05;2.05;;;;;;;13.89;76.92;101142.88;10497052;28;20052;-60
2022/11/01 08:53:25;;;;;;;9.20;2.20;;;;;;;13.67;75.66;101132.59;10505693;28;20044;-63
2022/11/01 08:58:27;;;;;;;7.32;1.98;;;;;;;13.68;76.33;101150.06;10496896;28;20052;-63
2022/11/01 09:03:29;;;;;;;10.75;2.33;;;;;;;14.23;75.12;101153.38;10495994;28;20087;-66
2022/11/01 09:08:32;;;;;;;;;;;;;;;14.12;74.26;101152.16;10494803;28;20090;-65
2022/11/01 09:13:34;;;;;;;8.07;1.85;;;;;;;14.12;74.79;101161.78;10528090;28;19946;-63
2022/11/01 09:18:36;;;;;;;8.68;2.35;;;;;;;14.26;75.90;101174.19;10537708;28;20103;-63
2022/11/01 09:23:39;;;;;;;13.02;2.45;;;;;;;14.24;74.47;101178.69;10537161;28;20567;-66
2022/11/01 09:28:41;;;;;;;11.65;2.50;;;;;;;14.34;76.00;101173.78;10537870;28;20044;-65
2022/11/01 09:33:42;;;;;;;15.23;2.40;;;;;;;14.29;74.50;101176.66;10537634;28;20516;-63
2022/11/01 09:38:45;;;;;;;;;;;;;;;15.19;72.52;101187.56;10535195;28;20060;-65
2022/11/01 09:43:51;;;;;;;8.15;2.17;;;;;;;14.99;74.14;101206.25;10537123;28;19920;-66
2022/11/01 09:48:55;;;;;;;10.70;2.30;;;;;;;15.49;72.14;101219.22;10536880;28;20052;-64
2022/11/01 09:54:03;;;;;;;10.25;2.97;;;;;;;14.96;73.21;101222.19;10536879;28;20048;-64
2022/11/01 09:59:19;;;;;;;13.80;2.60;;;;;;;15.24;72.03;101215.38;10536715;28;20050;-64
2022/11/01 10:04:47;;;;;;;6.75;1.75;;;;;;;14.91;71.91;101233.78;10536235;28;20047;-65
2022/11/01 10:10:04;;;;;;;9.50;2.33;;;;;;;15.61;71.82;101236.97;10531190;28;20040;-64
2022/11/01 10:15:28;;;;;;;10.82;2.20;;;;;;;15.73;70.35;101242.47;10501232;28;20110;-64
2022/11/01 10:20:38;;;;;;;7.35;2.28;;;;;;;15.21;72.38;101247.94;10493997;28;20057;-65
2022/11/01 10:25:51;;;;;;;13.63;2.42;;;;;;;15.38;73.18;101252.25;10530582;28;20086;-66
2022/11/01 10:31:00;;;;;;;17.88;2.58;;;;;;;15.53;71.29;101247.91;10507377;28;20091;-66
2022/11/01 10:36:10;;;;;;;10.98;2.72;;;;;;;16.11;71.08;101251.69;10493902;28;20040;-64
2022/11/01 10:41:23;;;;;;;8.70;2.25;;;;;;;15.90;69.83;101258.09;10492024;28;20118;-64
2022/11/01 10:46:32;;;;;;;8.57;2.80;;;;;;;15.62;71.55;101250.94;10494170;28;20041;-64
2022/11/01 10:51:36;;;;;;;7.00;2.30;;;;;;;16.52;68.76;101247.50;10493624;28;20076;-65
2022/11/01 10:56:45;;;;;;;11.95;2.42;;;;;;;16.88;65.49;101253.19;10492810;28;20102;-67
2022/11/01 11:01:50;;;;;;;8.15;2.63;;;;;;;16.97;68.34;101250.81;10492552;28;20056;-66
2022/11/01 11:06:52;;;;;;;9.70;2.92;;;;;;;16.62;65.55;101248.59;10492220;28;20044;-62
2022/11/01 11:12:03;;;;;;;7.85;2.00;;;;;;;15.96;68.78;101254.28;10487764;28;20478;-65
2022/11/01 11:17:18;;;;;;;9.45;2.20;;;;;;;15.57;70.00;101256.50;10499457;28;20090;-70
2022/11/01 11:22:22;;;;;;;10.85;2.40;;;;;;;16.59;69.35;101251.41;10502265;28;20083;-72
2022/11/01 11:27:31;;;;;;;10.18;2.47;;;;;;;16.84;67.94;101249.91;10502054;28;20098;-69
2022/11/01 11:32:37;;;;;;;7.38;1.83;;;;;;;15.53;70.46;101245.28;10514384;28;20040;-73
2022/11/01 11:37:49;;;;;;;8.82;2.40;;;;;;;16.26;70.29;101239.38;10543712;28;20147;-71
2022/11/01 11:42:55;;;;;;;5.72;1.70;;;;;;;16.50;69.28;101238.81;10541087;28;20105;-69
2022/11/01 11:48:15;;;;;;;8.10;1.95;;;;;;;15.93;70.17;101252.66;10543501;28;20044;-72
2022/11/01 11:53:23;;;;;;;7.60;2.17;;;;;;;16.89;66.70;101242.56;10542557;28;20055;-68
2022/11/01 11:58:37;;;;;;;9.50;1.95;;;;;;;15.93;69.96;101260.56;10543648;28;20604;-68
2022/11/01 12:03:48;;;;;;;10.70;2.95;;;;;;;16.10;69.44;101258.72;10542991;28;20098;-70
2022/11/01 12:08:53;;;;;;;5.43;1.67;;;;;;;16.02;68.89;101256.56;10540538;28;20051;-73
2022/11/01 12:14:06;;;;;;;7.00;2.10;;;;;;;16.51;68.31;101238.75;10542760;28;20093;-70
2022/11/01 12:19:24;;;;;;;6.05;1.70;;;;;;;16.24;67.76;101251.78;10542117;28;20458;-73
2022/11/01 12:24:31;;;;;;;5.63;1.88;;;;;;;16.69;66.92;101251.69;10541151;28;20055;-71
2022/11/01 12:29:41;;;;;;;4.05;1.73;;;;;;;15.92;68.94;101248.34;10541458;28;20058;-68
2022/11/01 12:34:47;;;;;;;9.77;2.17;;;;;;;16.17;68.38;101236.38;10541537;28;20065;-71
2022/11/01 12:39:57;;;;;;;7.25;1.80;;;;;;;15.88;69.25;101236.25;10539218;28;20048;-68
2022/11/01 12:45:11;;;;;;;11.48;2.30;;;;;;;16.55;68.08;101229.72;10540910;28;20433;-67
2022/11/01 12:50:21;;;;;;;10.30;1.92;;;;;;;16.86;66.55;101224.28;10540833;28;20062;-68
2022/11/01 12:55:33;;;;;;;5.80;1.88;;;;;;;16.94;65.16;101221.19;10540708;28;20120;-71
2022/11/01 13:00:51;;;;;;;;;;;;;;;16.67;65.61;101222.84;10541022;28;20062;-69
2022/11/01 13:06:06;;;;;;;7.00;1.80;;;;;;;16.18;68.48;101227.53;10540661;28;19924;-71
2022/11/01 13:11:23;;;;;;;6.82;1.65;;;;;;;16.41;66.52;101214.75;10538328;28;20060;-70
2022/11/01 13:16:35;;;;;;;3.63;1.20;;;;;;;16.54;65.84;101212.22;10539303;28;20054;-69
2022/11/01 13:21:48;;;;;;;7.07;2.00;;;;;;;16.34;65.70;101216.06;10539232;28;20113;-70
2022/11/01 13:26:59;;;;;;;6.57;1.70;;;;;;;16.15;67.46;101219.81;10538455;28;20139;-69
2022/11/01 13:32:10;;;;;;;7.05;1.60;;;;;;;16.32;65.50;101207.44;10538615;28;20423;-70
2022/11/01 13:37:31;;;;;;;6.32;2.00;;;;;;;16.75;64.36;101203.91;10538373;28;20056;-71
2022/11/01 13:42:41;;;;;;;6.78;1.75;;;;;;;17.00;64.88;101202.31;10536087;28;20048;-64
2022/11/01 13:48:01;;;;;;;8.05;1.80;;;;;;;16.12;66.03;101209.47;10538019;28;20480;-66
2022/11/01 13:53:16;;;;;;;6.40;1.75;;;;;;;16.08;65.80;101205.34;10535126;28;20089;-65
2022/11/01 13:58:22;;;;;;;7.60;1.55;;;;;;;15.89;66.20;101222.19;10530040;28;20063;-63
2022/11/01 14:03:29;;;;;;;7.85;1.83;;;;;;;15.87;66.08;101204.81;10538565;28;20052;-66
2022/11/01 14:08:37;;;;;;;7.00;1.77;;;;;;;15.93;66.19;101210.53;10537630;28;20048;-64
2022/11/01 14:13:44;;;;;;;11.25;1.60;;;;;;;15.84;66.44;101219.81;10538226;28;20059;-63
2022/11/01 14:19:15;;;;;;;8.95;2.10;;;;;;;15.87;65.77;101224.06;10537501;28;20056;-65
2022/11/01 14:24:26;;;;;;;5.30;1.40;;;;;;;15.84;66.55;101224.22;10532629;28;20048;-64
2022/11/01 14:29:30;;;;;;;4.55;1.40;;;;;;;15.84;66.06;101217.19;10537887;28;20051;-64
2022/11/01 14:34:37;;;;;;;6.00;1.73;;;;;;;15.77;66.47;101213.22;10538386;28;20097;-64
2022/11/01 14:39:51;;;;;;;7.82;1.60;;;;;;;15.70;65.81;101225.91;10517261;28;20079;-65
2022/11/01 14:44:58;;;;;;;5.72;1.50;;;;;;;15.68;66.69;101235.66;10519953;28;20040;-63
2022/11/01 14:50:15;;;;;;;9.38;1.92;;;;;;;15.60;66.68;101229.97;10541920;28;20135;-63
2022/11/01 14:55:23;;;;;;;4.10;1.63;;;;;;;15.55;67.01;101224.16;10545629;28;20246;-65
2022/11/01 15:00:28;;;;;;;4.38;1.42;;;;;;;15.56;67.52;101225.84;10543178;28;20101;-64
2022/11/01 15:05:32;;;;;;;4.07;1.30;;;;;;;15.51;68.02;101214.75;10506141;28;20048;-66
2022/11/01 15:10:41;;;;;;;10.60;1.98;;;;;;;15.43;67.71;101210.78;10537437;28;20097;-64
2022/11/01 15:15:58;;;;;;;5.18;1.42;;;;;;;15.27;68.11;101220.47;10544037;28;20054;-64
2022/11/01 15:21:02;;;;;;;4.88;1.45;;;;;;;15.19;68.71;101213.84;10543882;28;20484;-66
2022/11/01 15:26:11;;;;;;;4.25;1.55;;;;;;;15.10;69.14;101222.28;10543562;28;20458;-70
2022/11/01 15:31:14;;;;;;;6.13;2.10;;;;;;;15.04;69.58;101226.09;10543596;28;20044;-69
2022/11/01 15:36:26;;;;;;;6.95;2.10;;;;;;;14.93;69.57;101213.53;10543861;28;20461;-71
2022/11/01 15:41:31;;;;;;;11.18;2.50;;;;;;;14.80;70.52;101212.50;10541309;28;20134;-68
2022/11/01 15:46:39;;;;;;;5.95;1.80;;;;;;;14.73;70.74;101208.47;10543287;28;20476;-70
2022/11/01 15:51:54;;;;;;;5.50;1.88;;;;;;;14.58;70.95;101208.41;10543132;28;20446;-72
2022/11/01 16:02:38;;;;;;;4.88;1.85;;;;;;;14.51;71.71;101202.59;10537830;28;20060;-70
2022/11/01 16:07:42;;;;;;;8.18;2.05;;;;;;;14.42;71.55;101209.22;10542534;28;20043;-65
2022/11/01 16:12:47;;;;;;;6.85;2.10;;;;;;;14.40;71.84;101210.19;10540548;28;20105;-66
2022/11/01 16:17:49;;;;;;;11.18;2.60;;;;;;;14.27;72.78;101223.16;10542221;28;20056;-72
2022/11/01 16:22:54;;;;;;;7.88;1.83;;;;;;;14.18;73.54;101226.22;10541877;28;20415;-70
2022/11/01 16:28:03;;;;;;;4.97;1.95;;;;;;;14.07;74.25;101229.41;10540580;28;20056;-73
2022/11/01 16:33:15;;;;;;;10.75;2.10;;;;;;;14.02;74.78;101242.75;10540312;28;20047;-70
2022/11/01 16:38:43;;;;;;;12.65;2.63;;;;;;;14.11;74.44;101252.81;10540676;28;20101;-68
2022/11/01 16:43:45;;;;;;;10.50;2.45;;;;;;;13.97;75.44;101236.91;10539797;28;20098;-70
2022/11/01 16:48:53;;;;;;;;;;;;;;;13.85;76.44;101262.81;10540687;28;20040;-68
2022/11/01 16:53:59;;;;;;;6.28;1.73;;;;;;;13.81;76.86;101245.53;10539382;28;19958;-69
2022/11/01 16:59:07;;;;;;;8.65;1.77;;;;;;;13.84;76.42;101250.63;10539016;28;20482;-74
2022/11/01 17:04:11;;;;;;;10.55;1.85;;;;;;;13.97;76.32;101253.50;10538852;28;20089;-69
2022/11/01 17:09:17;;;;;;;7.70;2.10;;;;;;;13.94;76.50;101248.41;10536586;28;20048;-68
2022/11/01 17:14:21;;;;;;;11.40;2.15;;;;;;;13.82;77.23;101251.66;10538673;28;20496;-69
2022/11/01 17:19:29;;;;;;;9.77;2.30;;;;;;;13.78;77.77;101253.56;10538555;28;20101;-76
2022/11/01 17:24:34;;;;;;;7.45;2.13;;;;;;;13.71;78.23;101241.66;10538356;28;20048;-69
2022/11/01 17:29:37;;;;;;;9.93;2.38;;;;;;;13.84;77.72;101239.28;10538241;28;20151;-71
2022/11/01 17:34:39;;;;;;;8.38;1.92;;;;;;;13.69;78.61;101246.16;10537789;28;20052;-67
2022/11/01 17:39:41;;;;;;;;;;;;;;;13.63;78.68;101245.53;10536031;28;20098;-69
2022/11/01 17:44:43;;;;;;;11.38;2.55;;;;;;;13.55;78.95;101245.03;10537451;28;19973;-69
2022/11/01 17:49:46;;;;;;;4.70;1.60;;;;;;;13.43;79.68;101235.97;10539232;28;20056;-67
2022/11/01 17:54:49;;;;;;;11.27;2.42;;;;;;;13.38;80.22;101244.06;10538868;28;20553;-64
2022/11/01 17:59:52;;;;;;;9.05;1.90;;;;;;;13.44;80.17;101248.16;10535958;28;20040;-66
2022/11/01 18:04:54;;;;;;;8.95;2.35;;;;;;;13.54;79.63;101253.00;10501348;28;20535;-65
2022/11/01 18:09:59;;;;;;;10.88;2.50;;;;;;;13.57;79.64;101243.22;10531410;28;20075;-67
2022/11/01 18:15:16;;;;;;;13.65;2.83;;;;;;;13.60;79.42;101232.56;10535894;28;20040;-68
2022/11/01 18:20:36;;;;;;;10.23;2.60;;;;;;;13.58;79.54;101234.41;10535676;28;20104;-63
2022/11/01 18:25:44;;;;;;;7.50;2.30;;;;;;;13.49;80.14;101229.63;10542066;28;20068;-66
2022/11/01 18:30:54;;;;;;;11.27;2.22;;;;;;;13.41;80.21;101242.22;10532975;28;20154;-65
2022/11/01 18:36:06;;;;;;;12.48;2.80;;;;;;;13.37;80.40;101221.41;10502798;28;20048;-68
2022/11/01 18:41:15;;;;;;;15.13;2.65;;;;;;;13.30;80.76;101240.97;10511902;28;20055;-66
2022/11/01 18:46:21;;;;;;;8.35;2.28;;;;;;;13.19;81.26;101244.09;10544053;28;20048;-66
2022/11/01 18:51:27;;;;;;;9.02;2.30;;;;;;;13.16;81.22;101243.38;10543877;28;20418;-66
2022/11/01 18:56:30;;;;;;;10.43;3.05;;;;;;;13.16;81.69;101243.38;10544130;28;20044;-66
2022/11/01 19:01:32;;;;;;;12.48;2.30;;;;;;;12.98;82.37;101235.47;10543598;28;20519;-66
2022/11/01 19:06:38;;;;;;;10.23;1.92;;;;;;;13.07;81.60;101240.25;10541674;28;20557;-67
2022/11/01 19:11:42;;;;;;;11.80;2.65;;;;;;;13.02;82.46;101242.25;10508339;28;20045;-66
2022/11/01 19:16:44;;;;;;;12.57;2.95;;;;;;;13.02;82.78;101237.03;10529717;28;20476;-73
2022/11/01 19:21:47;;;;;;;13.93;2.65;;;;;;;13.01;82.94;101251.03;10541522;28;20518;-69
2022/11/01 19:26:50;;;;;;;9.35;2.33;;;;;;;13.20;82.08;101247.53;10530413;28;20128;-67
2022/11/01 19:31:56;;;;;;;14.00;2.83;;;;;;;13.18;82.42;101252.03;10499869;28;20389;-66
2022/11/01 19:37:03;;;;;;;8.32;1.75;;;;;;;13.22;82.09;101237.84;10500060;28;20056;-64
2022/11/01 19:42:23;;;;;;;10.15;1.90;;;;;;;13.23;82.15;101223.81;10534228;28;20040;-66
2022/11/01 19:47:45;;;;;;;8.77;1.70;;;;;;;13.25;81.76;101216.75;10541559;28;20500;-67
2022/11/01 19:52:49;;;;;;;12.18;2.65;;;;;;;13.24;82.17;101212.44;10541909;28;20093;-68
2022/11/01 19:57:52;;;;;;;12.52;2.67;;;;;;;13.17;82.78;101211.03;10539891;28;20458;-67
2022/11/01 20:02:58;;;;;;;9.25;2.42;;;;;;;13.13;82.57;101219.03;10540109;28;20097;-65
2022/11/01 20:08:17;;;;;;;11.60;2.60;;;;;;;13.10;83.12;101213.94;10539984;28;20074;-64
2022/11/01 20:13:20;;;;;;;9.18;2.40;;;;;;;13.18;82.57;101208.34;10537368;28;20063;-64
2022/11/01 20:18:22;;;;;;;10.70;2.15;;;;;;;13.12;83.08;101191.13;10539365;28;20052;-65
2022/11/01 20:23:24;;;;;;;10.88;2.40;;;;;;;13.15;82.99;101200.63;10539131;28;20052;-69
2022/11/01 20:28:28;;;;;;;10.82;2.70;;;;;;;13.15;83.06;101200.63;10539368;28;20044;-65
2022/11/01 20:33:29;;;;;;;10.15;2.33;;;;;;;13.11;83.45;101192.03;10538430;28;20055;-66
2022/11/01 20:38:31;;;;;;;9.63;2.25;;;;;;;13.16;83.28;101201.44;10538748;28;20078;-66
2022/11/01 20:43:34;;;;;;;12.15;2.75;;;;;;;13.10;83.51;101208.69;10535890;28;20093;-65
2022/11/01 20:48:36;;;;;;;13.07;2.40;;;;;;;13.12;83.96;101206.84;10537320;28;20059;-68
2022/11/01 20:53:37;;;;;;;8.23;2.35;;;;;;;13.17;83.52;101197.94;10538137;28;20056;-67
2022/11/01 20:58:42;;;;;;;14.13;2.30;;;;;;;13.19;83.74;101196.06;10537422;28;20048;-65
2022/11/01 21:03:44;;;;;;;8.40;2.67;;;;;;;13.20;83.48;101201.22;10538131;28;20048;-67
2022/11/01 21:08:46;;;;;;;8.77;2.60;;;;;;;13.25;83.12;101201.03;10535401;28;20081;-66
2022/11/01 21:13:51;;;;;;;11.18;2.40;;;;;;;13.23;83.25;101208.09;10537034;28;20105;-65
2022/11/01 21:19:00;;;;;;;7.88;1.95;;;;;;;13.25;83.52;101207.09;10537469;28;20054;-68
2022/11/01 21:24:27;;;;;;;8.88;2.30;;;;;;;13.24;84.00;101221.13;10537992;28;20052;-66
2022/11/01 21:29:31;;;;;;;9.45;2.60;;;;;;;13.32;83.15;101217.28;10522879;28;20101;-65
2022/11/01 21:34:33;;;;;;;10.70;2.65;;;;;;;13.37;83.25;101205.66;10505779;28;20110;-65
2022/11/01 21:39:37;;;;;;;10.95;2.67;;;;;;;13.38;83.04;101202.13;10507569;28;20044;-64
2022/11/01 21:44:44;;;;;;;13.30;2.30;;;;;;;13.34;83.91;101203.19;10511015;28;20058;-64
2022/11/01 21:49:49;;;;;;;8.43;2.50;;;;;;;13.37;83.35;101205.66;10496286;28;20053;-69
2022/11/01 21:54:52;;;;;;;11.13;2.40;;;;;;;13.41;82.87;101200.28;10496186;28;20055;-64
2022/11/01 21:59:56;;;;;;;9.77;2.15;;;;;;;13.38;83.39;101196.88;10495628;28;20099;-64
2022/11/01 22:04:58;;;;;;;10.07;2.45;;;;;;;13.39;83.14;101192.50;10510046;28;20072;-65
2022/11/01 22:10:01;;;;;;;12.95;2.65;;;;;;;13.37;83.41;101184.69;10494369;28;20056;-65
2022/11/01 22:15:06;;;;;;;10.38;2.40;;;;;;;13.24;84.53;101173.97;10496453;28;20487;-64
2022/11/01 22:20:09;;;;;;;7.60;2.38;;;;;;;13.22;84.47;101167.09;10495761;28;20504;-66
2022/11/01 22:25:11;;;;;;;8.65;3.00;;;;;;;13.24;84.52;101178.38;10494650;28;20086;-66
2022/11/01 22:30:14;;;;;;;;;;;;;;;13.23;85.07;101161.78;10494951;28;20518;-64
2022/11/01 22:35:16;;;;;;;9.13;2.17;;;;;;;13.08;86.08;101158.16;10494575;28;19982;-67
2022/11/01 22:40:19;;;;;;;11.05;2.38;;;;;;;13.03;86.54;101167.16;10492507;28;20073;-66
2022/11/01 22:45:22;;;;;;;11.75;2.85;;;;;;;13.06;86.89;101157.34;10494474;28;20048;-66
2022/11/01 22:50:28;;;;;;;10.93;2.90;;;;;;;13.09;86.68;101151.97;10494186;28;20053;-65
2022/11/01 22:55:31;;;;;;;11.10;2.80;;;;;;;12.97;87.18;101140.28;10494246;28;20108;-68
2022/11/01 23:00:37;;;;;;;9.48;2.33;;;;;;;12.91;87.59;101129.28;10493998;28;20049;-67
2022/11/01 23:05:41;;;;;;;9.18;1.98;;;;;;;13.04;87.13;101124.28;10493602;28;20424;-67
2022/11/01 23:10:48;;;;;;;12.02;2.63;;;;;;;12.93;88.05;101137.91;10495460;28;20045;-65
2022/11/01 23:15:51;;;;;;;8.38;2.17;;;;;;;12.96;87.96;101137.75;10501573;28;20048;-66
2022/11/01 23:20:57;;;;;;;8.38;2.10;;;;;;;12.99;87.60;101140.22;10501106;28;20052;-65
2022/11/01 23:26:02;;;;;;;9.68;2.08;;;;;;;13.00;87.69;101144.53;10500435;28;20148;-66
2022/11/01 23:31:06;;;;;;;9.35;2.38;;;;;;;13.09;87.75;101149.34;10501085;28;20161;-66
2022/11/01 23:36:17;;;;;;;6.85;2.00;;;;;;;13.05;87.89;101147.81;10500642;28;20045;-65
2022/11/01 23:41:22;;;;;;;8.17;2.50;;;;;;;13.07;87.86;101134.63;10498194;28;20079;-65